Time;durP1;ratioP1;P1;durP2;ratioP2;P2;SDS_P1;SDS_P2;PMS_P1;PMS_P2;Temp;Humidity;BMP_temperature;BMP_pressure;BME280_temperature;BME280_humidity;BME280_pressure;Samples;Min_cycle;Max_cycle;Signal;HPM_P1;HPM_P2
2022/07/29 00:03:21;;;;;;;3.75;1.10;;;;;;;13.93;100.00;101942.16;10463329;28;20041;-70
2022/07/29 00:08:21;;;;;;;3.42;1.10;;;;;;;13.91;100.00;101941.59;10460458;28;20489;-69
2022/07/29 00:13:22;;;;;;;3.10;1.38;;;;;;;13.91;100.00;101944.34;10443921;28;20479;-70
2022/07/29 00:18:22;;;;;;;3.80;1.17;;;;;;;13.90;100.00;101937.13;10442764;28;20044;-70
2022/07/29 00:23:23;;;;;;;4.97;1.30;;;;;;;13.92;100.00;101932.16;10460472;28;20041;-70
2022/07/29 00:28:23;;;;;;;5.93;1.88;;;;;;;13.93;100.00;101920.03;10459435;28;20060;-70
2022/07/29 00:33:24;;;;;;;6.22;1.20;;;;;;;13.95;100.00;101910.63;10458592;28;20059;-70
2022/07/29 00:38:24;;;;;;;2.72;1.05;;;;;;;13.98;100.00;101904.59;10460341;28;20045;-70
2022/07/29 00:43:25;;;;;;;2.15;1.40;;;;;;;13.96;100.00;101895.69;10459553;28;20033;-70
2022/07/29 00:48:25;;;;;;;2.85;1.13;;;;;;;13.98;100.00;101904.59;10461406;28;20052;-70
2022/07/29 00:53:26;;;;;;;3.85;1.15;;;;;;;13.95;100.00;101888.47;10461723;28;20044;-69
2022/07/29 00:58:26;;;;;;;3.50;1.42;;;;;;;14.02;100.00;101895.50;10459619;28;20371;-71
2022/07/29 01:03:27;;;;;;;4.20;1.10;;;;;;;14.02;100.00;101880.84;10459151;28;20052;-70
2022/07/29 01:08:27;;;;;;;2.08;1.15;;;;;;;14.02;100.00;101873.38;10457127;28;20044;-66
2022/07/29 01:13:29;;;;;;;6.28;1.90;;;;;;;14.04;100.00;101876.72;10460245;28;20056;-70
2022/07/29 01:18:39;;;;;;;5.65;1.42;;;;;;;14.01;100.00;101870.84;10441944;28;20033;-70
2022/07/29 01:23:58;;;;;;;5.25;1.40;;;;;;;13.72;100.00;101815.59;10460432;28;20457;-70
2022/07/29 01:29:29;;;;;;;4.32;1.20;;;;;;;14.00;100.00;101852.56;10440646;28;20076;-70
2022/07/29 01:34:36;;;;;;;2.45;1.10;;;;;;;13.96;100.00;101841.16;10416600;28;20113;-70
2022/07/29 01:39:37;;;;;;;6.28;1.65;;;;;;;13.92;100.00;101831.69;10418335;28;20038;-70
2022/07/29 01:44:52;;;;;;;2.38;1.20;;;;;;;13.95;100.00;101846.94;10399892;28;20033;-70
2022/07/29 01:49:54;;;;;;;5.07;1.30;;;;;;;13.88;100.00;101823.03;10407799;28;20547;-70
2022/07/29 01:54:56;;;;;;;2.78;1.35;;;;;;;13.91;100.00;101817.00;10438791;28;20041;-69
2022/07/29 01:59:57;;;;;;;4.03;1.30;;;;;;;13.93;100.00;101819.50;10438412;28;20564;-69
2022/07/29 02:04:57;;;;;;;3.20;1.58;;;;;;;13.88;100.00;101809.19;10454681;28;20068;-70
2022/07/29 02:09:58;;;;;;;5.28;1.13;;;;;;;13.88;100.00;101811.97;10423697;28;20077;-69
2022/07/29 02:15:00;;;;;;;3.80;1.20;;;;;;;13.87;100.00;101809.44;10439512;28;20508;-69
2022/07/29 02:20:02;;;;;;;5.85;1.63;;;;;;;13.83;100.00;101798.06;10438807;28;20047;-70
2022/07/29 02:25:02;;;;;;;2.85;1.35;;;;;;;13.82;100.00;101796.38;10456524;28;20041;-70
2022/07/29 02:30:03;;;;;;;6.85;1.48;;;;;;;13.84;100.00;101794.19;10439183;28;20040;-70
2022/07/29 02:35:04;;;;;;;2.08;1.15;;;;;;;13.85;100.00;101783.94;10438945;28;20068;-69
2022/07/29 02:40:08;;;;;;;3.50;1.02;;;;;;;13.86;100.00;101792.00;10437966;28;20033;-69
2022/07/29 02:45:09;;;;;;;3.80;1.40;;;;;;;13.81;100.00;101783.63;10421885;28;20036;-69
2022/07/29 02:50:20;;;;;;;2.83;1.33;;;;;;;13.80;100.00;101784.72;10437386;28;20041;-70
2022/07/29 02:55:30;;;;;;;7.13;1.48;;;;;;;13.76;100.00;101780.78;10438349;28;20089;-70
2022/07/29 03:00:31;;;;;;;3.78;1.33;;;;;;;13.75;100.00;101773.59;10437512;28;20090;-68
2022/07/29 03:05:32;;;;;;;4.05;1.60;;;;;;;13.74;100.00;101769.13;10438316;28;20511;-69
2022/07/29 03:10:32;;;;;;;7.80;1.58;;;;;;;13.70;100.00;101766.06;10461986;28;20051;-69
2022/07/29 03:15:33;;;;;;;3.75;1.40;;;;;;;13.70;100.00;101765.19;10467439;28;20033;-69
2022/07/29 03:20:33;;;;;;;3.72;1.60;;;;;;;13.67;100.00;101771.25;10449626;28;20048;-69
2022/07/29 03:25:34;;;;;;;1.77;1.23;;;;;;;13.66;100.00;101762.13;10450202;28;20041;-70
2022/07/29 03:30:35;;;;;;;3.80;1.20;;;;;;;13.65;100.00;101765.13;10450308;28;20037;-70
2022/07/29 03:35:35;;;;;;;2.53;1.40;;;;;;;13.63;100.00;101765.38;10450227;28;20094;-69
2022/07/29 03:40:55;;;;;;;2.10;1.40;;;;;;;13.63;100.00;101759.00;10469379;28;20050;-70
2022/07/29 03:45:56;;;;;;;4.13;1.58;;;;;;;13.64;100.00;101752.38;10469375;28;20040;-70
2022/07/29 03:50:56;;;;;;;5.43;1.38;;;;;;;13.35;100.00;101743.34;10466804;28;20408;-69
2022/07/29 03:55:59;;;;;;;5.20;1.40;;;;;;;13.58;100.00;101745.06;10450827;28;20155;-69
2022/07/29 04:00:59;;;;;;;6.78;1.40;;;;;;;13.62;100.00;101746.25;10432133;28;20055;-69
2022/07/29 04:06:05;;;;;;;4.18;1.50;;;;;;;13.63;100.00;101736.88;10482524;28;20057;-70
2022/07/29 04:11:06;;;;;;;5.67;1.50;;;;;;;13.69;100.00;101752.47;10465487;28;20044;-70
2022/07/29 04:16:06;;;;;;;7.07;1.33;;;;;;;13.72;100.00;101755.56;10468567;28;20046;-70
2022/07/29 04:21:07;;;;;;;3.38;1.30;;;;;;;13.79;100.00;101760.91;10460844;28;20065;-70
2022/07/29 04:26:10;;;;;;;5.20;1.30;;;;;;;13.84;100.00;101751.84;10460084;28;20068;-71
2022/07/29 04:31:11;;;;;;;7.63;1.50;;;;;;;13.84;100.00;101730.53;10455415;28;20040;-69
2022/07/29 04:36:11;;;;;;;5.43;2.13;;;;;;;13.93;100.00;101742.00;10460834;28;20033;-69
2022/07/29 04:41:12;;;;;;;4.72;1.65;;;;;;;14.05;100.00;101764.84;10458667;28;20101;-71
2022/07/29 04:46:12;;;;;;;6.45;2.38;;;;;;;14.08;100.00;101756.06;10460072;28;20044;-65
2022/07/29 04:51:13;;;;;;;4.60;1.67;;;;;;;14.12;100.00;101753.63;10461495;28;20041;-70
2022/07/29 04:56:14;;;;;;;3.65;1.45;;;;;;;14.17;100.00;101756.44;10457505;28;20033;-70
2022/07/29 05:01:14;;;;;;;6.13;1.80;;;;;;;14.18;100.00;101758.13;10458140;28;20116;-70
2022/07/29 05:06:15;;;;;;;5.38;2.42;;;;;;;14.25;100.00;101744.09;10458200;28;20068;-70
2022/07/29 05:11:16;;;;;;;4.00;1.50;;;;;;;14.30;100.00;101756.06;10458390;28;20501;-70
2022/07/29 05:16:16;;;;;;;3.65;1.63;;;;;;;14.32;100.00;101761.34;10455014;28;20063;-69
2022/07/29 05:21:17;;;;;;;8.10;1.50;;;;;;;14.37;100.00;101747.56;10460412;28;20037;-70
2022/07/29 05:26:17;;;;;;;4.30;1.55;;;;;;;14.46;100.00;101753.47;10457937;28;20029;-71
2022/07/29 05:31:18;;;;;;;5.07;1.83;;;;;;;14.62;100.00;101755.38;10422439;28;20072;-70
2022/07/29 05:36:18;;;;;;;2.33;1.20;;;;;;;14.79;100.00;101748.88;10415781;28;20033;-70
2022/07/29 05:41:19;;;;;;;3.15;1.10;;;;;;;15.00;100.00;101742.44;10399693;28;20041;-71
2022/07/29 05:46:20;;;;;;;6.03;2.13;;;;;;;15.21;100.00;101739.84;10416365;28;20101;-70
2022/07/29 05:51:20;;;;;;;2.60;1.42;;;;;;;15.34;100.00;101722.75;10450368;28;20061;-70
2022/07/29 05:56:20;;;;;;;4.35;1.50;;;;;;;15.50;100.00;101735.66;10440451;28;20029;-70
2022/07/29 06:01:21;;;;;;;3.00;1.38;;;;;;;15.59;100.00;101737.94;10457073;28;20037;-70
2022/07/29 06:06:22;;;;;;;4.70;2.08;;;;;;;15.60;100.00;101740.41;10457056;28;20041;-70
2022/07/29 06:11:22;;;;;;;4.70;1.33;;;;;;;15.70;100.00;101737.72;10457017;28;20123;-70
2022/07/29 06:16:23;;;;;;;5.30;1.52;;;;;;;15.81;100.00;101732.25;10454487;28;20045;-70
2022/07/29 06:21:24;;;;;;;3.35;1.83;;;;;;;15.93;100.00;101742.03;10457717;28;20104;-70
2022/07/29 06:26:24;;;;;;;2.80;1.10;;;;;;;16.03;100.00;101741.28;10455788;28;20089;-70
2022/07/29 06:31:25;;;;;;;4.97;1.60;;;;;;;16.16;100.00;101739.09;10457292;28;20064;-70
2022/07/29 06:36:25;;;;;;;3.63;1.40;;;;;;;16.20;100.00;101746.63;10455493;28;20037;-69
2022/07/29 06:41:26;;;;;;;2.17;1.30;;;;;;;16.27;100.00;101740.84;10454570;28;20033;-70
2022/07/29 06:46:27;;;;;;;4.03;1.35;;;;;;;16.36;100.00;101747.53;10455098;28;20041;-70
2022/07/29 06:51:27;;;;;;;6.60;1.50;;;;;;;16.44;100.00;101748.97;10454123;28;20056;-70
2022/07/29 06:56:31;;;;;;;5.57;1.20;;;;;;;16.49;100.00;101754.53;10455942;28;20400;-70
2022/07/29 07:01:32;;;;;;;4.13;1.60;;;;;;;16.53;100.00;101758.41;10454770;28;20041;-71
2022/07/29 07:06:32;;;;;;;4.88;1.70;;;;;;;16.58;100.00;101752.91;10457378;28;20036;-71
2022/07/29 07:11:32;;;;;;;4.20;1.70;;;;;;;16.67;100.00;101755.97;10454473;28;20037;-71
2022/07/29 07:16:33;;;;;;;7.63;1.75;;;;;;;16.72;100.00;101759.59;10454428;28;20030;-65
2022/07/29 07:21:33;;;;;;;14.82;1.95;;;;;;;16.73;100.00;101738.19;10448634;28;20051;-71
2022/07/29 07:26:34;;;;;;;3.85;1.30;;;;;;;16.83;100.00;101748.53;10433794;28;20044;-70
2022/07/29 07:31:36;;;;;;;4.70;1.50;;;;;;;17.02;100.00;101746.88;10433980;28;20037;-69
2022/07/29 07:36:36;;;;;;;3.13;1.55;;;;;;;17.20;100.00;101755.78;10450592;28;20424;-70
2022/07/29 07:41:37;;;;;;;5.70;1.80;;;;;;;17.36;100.00;101757.47;10454904;28;20062;-69
2022/07/29 07:46:37;;;;;;;5.18;1.95;;;;;;;17.11;100.00;101734.09;10437724;28;20037;-70
2022/07/29 07:51:38;;;;;;;6.90;1.92;;;;;;;17.42;100.00;101764.69;10435315;28;20482;-70
2022/07/29 07:56:38;;;;;;;4.35;1.55;;;;;;;17.55;100.00;101766.13;10426656;28;20044;-70
2022/07/29 08:01:39;;;;;;;5.68;1.50;;;;;;;17.65;100.00;101765.25;10444153;28;20033;-70
2022/07/29 08:06:39;;;;;;;6.22;1.70;;;;;;;17.58;100.00;101751.63;10442222;28;20033;-69
2022/07/29 08:11:40;;;;;;;5.30;1.50;;;;;;;17.76;100.00;101761.34;10441480;28;20045;-70
2022/07/29 08:16:41;;;;;;;5.88;1.58;;;;;;;17.68;100.00;101732.09;10468524;28;20041;-70
2022/07/29 08:21:42;;;;;;;7.22;1.75;;;;;;;17.90;100.00;101744.88;10460518;28;20097;-70
2022/07/29 08:26:42;;;;;;;12.18;1.80;;;;;;;18.09;100.00;101747.91;10461657;28;20040;-70
2022/07/29 08:31:43;;;;;;;4.20;1.52;;;;;;;18.29;100.00;101747.00;10463086;28;20128;-71
2022/07/29 08:36:43;;;;;;;7.68;1.60;;;;;;;18.60;100.00;101744.06;10462112;28;20448;-70
2022/07/29 08:41:44;;;;;;;5.50;1.98;;;;;;;18.71;100.00;101746.50;10437911;28;20033;-70
2022/07/29 08:46:45;;;;;;;4.40;1.55;;;;;;;18.88;100.00;101746.16;10433911;28;20048;-70
2022/07/29 08:51:45;;;;;;;6.50;2.03;;;;;;;19.12;100.00;101743.47;10436298;28;20033;-71
2022/07/29 08:56:49;;;;;;;4.95;1.83;;;;;;;19.43;100.00;101726.47;10437251;28;20029;-70
2022/07/29 09:01:50;;;;;;;6.55;2.20;;;;;;;19.42;100.00;101724.78;10439847;28;20132;-70
2022/07/29 09:06:51;;;;;;;3.70;1.65;;;;;;;19.71;99.66;101726.75;10418799;28;20517;-70
2022/07/29 09:11:53;;;;;;;3.42;1.60;;;;;;;19.67;99.49;101714.50;10437273;28;20440;-70
2022/07/29 09:16:54;;;;;;;6.43;1.88;;;;;;;19.89;99.36;101730.78;10449626;28;20052;-69
2022/07/29 09:21:58;;;;;;;5.18;1.70;;;;;;;19.76;98.07;101729.50;10458663;28;20045;-69
2022/07/29 09:26:59;;;;;;;5.43;1.42;;;;;;;19.67;99.53;101725.66;10442563;28;20041;-71
2022/07/29 09:31:59;;;;;;;4.65;1.45;;;;;;;19.46;100.00;101680.34;10460568;28;20052;-69
2022/07/29 09:36:59;;;;;;;6.18;1.73;;;;;;;19.82;100.00;101722.72;10460215;28;20037;-71
2022/07/29 09:42:05;;;;;;;5.05;1.65;;;;;;;19.95;97.73;101710.84;10456844;28;20037;-71
2022/07/29 09:47:05;;;;;;;4.18;1.75;;;;;;;20.07;97.65;101713.22;10459195;28;20052;-70
2022/07/29 09:52:07;;;;;;;7.90;1.70;;;;;;;20.17;97.48;101684.28;10459135;28;20032;-71
2022/07/29 09:57:12;;;;;;;4.00;1.95;;;;;;;20.64;96.10;101723.69;10459558;28;20029;-70
2022/07/29 10:02:13;;;;;;;6.97;1.48;;;;;;;21.09;95.05;101722.16;10458710;28;20047;-71
2022/07/29 10:07:13;;;;;;;3.67;1.50;;;;;;;21.38;92.98;101695.91;10456843;28;20073;-71
2022/07/29 10:12:14;;;;;;;3.05;1.60;;;;;;;21.71;90.23;101709.88;10443810;28;20040;-70
2022/07/29 10:17:14;;;;;;;5.15;1.80;;;;;;;21.76;90.59;101709.78;10456516;28;20033;-71
2022/07/29 10:22:15;;;;;;;8.70;1.73;;;;;;;21.91;91.31;101703.88;10457540;28;20374;-70
2022/07/29 10:27:15;;;;;;;4.07;1.77;;;;;;;21.83;88.89;101703.75;10458409;28;20037;-69
2022/07/29 10:32:31;;;;;;;5.65;1.90;;;;;;;21.99;87.74;101695.88;10455983;28;20033;-70
2022/07/29 10:37:38;;;;;;;4.67;1.77;;;;;;;22.11;88.51;101696.19;10453046;28;20055;-70
2022/07/29 10:42:39;;;;;;;5.90;2.05;;;;;;;22.16;88.40;101696.91;10455786;28;20029;-70
2022/07/29 10:47:39;;;;;;;4.78;1.60;;;;;;;22.34;89.58;101695.13;10454665;28;20041;-71
2022/07/29 10:52:49;;;;;;;4.22;1.55;;;;;;;22.73;86.61;101690.88;10455816;28;20037;-71
2022/07/29 10:58:19;;;;;;;7.18;1.92;;;;;;;23.11;85.16;101692.50;10457464;28;20485;-70
2022/07/29 11:03:48;;;;;;;4.85;2.05;;;;;;;23.61;83.46;101680.25;10456121;28;20441;-71
2022/07/29 11:09:18;;;;;;;4.53;1.77;;;;;;;24.02;80.96;101677.16;10449634;28;20037;-70
2022/07/29 11:14:28;;;;;;;6.97;1.85;;;;;;;23.93;79.01;101684.72;10455727;28;20086;-70
2022/07/29 11:19:29;;;;;;;6.80;2.05;;;;;;;23.70;79.57;101689.56;10453220;28;20029;-71
2022/07/29 11:24:34;;;;;;;6.20;2.17;;;;;;;23.52;80.42;101692.28;10452491;28;20037;-71
2022/07/29 11:29:49;;;;;;;5.55;1.73;;;;;;;23.45;80.65;101688.28;10486635;28;20033;-71
2022/07/29 11:35:09;;;;;;;6.50;2.20;;;;;;;23.44;81.08;101693.06;10463834;28;20029;-71
2022/07/29 11:40:11;;;;;;;7.30;1.83;;;;;;;23.30;82.20;101703.56;10465074;28;20132;-71
2022/07/29 11:45:13;;;;;;;3.85;1.80;;;;;;;23.11;81.90;101690.56;10495999;28;20496;-71
2022/07/29 11:50:37;;;;;;;3.25;2.00;;;;;;;23.13;82.87;101696.69;10462885;28;20070;-71
2022/07/29 11:55:38;;;;;;;6.80;2.58;;;;;;;23.14;83.14;101694.69;10417676;28;20080;-71
2022/07/29 12:00:40;;;;;;;3.33;1.63;;;;;;;23.09;83.77;101692.84;10433195;28;20033;-71
2022/07/29 12:05:42;;;;;;;3.97;1.92;;;;;;;23.17;85.20;101672.44;10474721;28;20033;-70
2022/07/29 12:10:42;;;;;;;4.55;1.42;;;;;;;23.29;82.61;101677.44;10461836;28;20489;-72
2022/07/29 12:15:50;;;;;;;5.10;2.20;;;;;;;23.33;82.38;101680.44;10442210;28;20049;-71
2022/07/29 12:21:04;;;;;;;8.65;2.10;;;;;;;23.53;85.24;101681.88;10450436;28;20041;-71
2022/07/29 12:26:05;;;;;;;7.60;2.58;;;;;;;23.86;83.51;101667.50;10435968;28;20477;-72
2022/07/29 12:31:12;;;;;;;3.38;1.55;;;;;;;23.85;79.56;101661.03;10438117;28;20033;-72
2022/07/29 12:36:13;;;;;;;5.72;1.58;;;;;;;23.96;81.67;101665.22;10441327;28;20037;-71
2022/07/29 12:41:13;;;;;;;9.15;2.28;;;;;;;24.21;86.21;101681.66;10438712;28;20037;-71
2022/07/29 12:46:14;;;;;;;4.25;2.30;;;;;;;23.86;89.18;101656.25;10443511;28;20629;-71
2022/07/29 12:51:16;;;;;;;9.82;2.60;;;;;;;23.75;88.28;101686.59;10445500;28;20106;-69
2022/07/29 12:56:17;;;;;;;11.60;2.13;;;;;;;23.48;89.49;101688.47;10420481;28;20026;-72
2022/07/29 13:01:19;;;;;;;7.32;2.20;;;;;;;23.26;89.65;101683.72;10435209;28;20033;-71
2022/07/29 13:06:40;;;;;;;5.00;2.45;;;;;;;23.14;100.00;101705.94;10460120;28;20456;-70
2022/07/29 13:11:42;;;;;;;5.88;2.17;;;;;;;22.77;94.64;101668.63;10457032;28;20068;-71
2022/07/29 13:17:20;;;;;;;4.40;2.05;;;;;;;22.45;97.84;101694.91;10458183;28;20067;-71
2022/07/29 13:22:22;;;;;;;8.55;2.95;;;;;;;22.16;100.00;101701.69;10456008;28;20053;-71
2022/07/29 13:27:25;;;;;;;7.72;1.98;;;;;;;21.98;100.00;101695.06;10457835;28;20087;-71
2022/07/29 13:32:26;;;;;;;9.00;2.25;;;;;;;21.75;100.00;101700.53;10455271;28;20037;-71
2022/07/29 13:37:29;;;;;;;5.38;2.35;;;;;;;21.62;100.00;101701.38;10438518;28;20045;-72
2022/07/29 13:42:29;;;;;;;8.63;2.10;;;;;;;21.48;100.00;101689.31;10438959;28;20025;-72
2022/07/29 13:47:30;;;;;;;7.18;2.85;;;;;;;21.48;100.00;101690.13;10422339;28;20045;-72
2022/07/29 13:52:30;;;;;;;4.20;2.15;;;;;;;21.46;100.00;101695.22;10418880;28;20033;-71
2022/07/29 13:57:31;;;;;;;8.05;2.10;;;;;;;21.59;100.00;101684.34;10437139;28;20037;-72
2022/07/29 14:02:33;;;;;;;6.75;2.28;;;;;;;21.68;100.00;101679.66;10454798;28;20112;-72
2022/07/29 14:07:33;;;;;;;9.27;2.58;;;;;;;21.78;100.00;101682.28;10458156;28;20036;-71
2022/07/29 14:12:34;;;;;;;6.32;2.08;;;;;;;21.99;100.00;101693.06;10458803;28;20041;-71
2022/07/29 14:17:35;;;;;;;4.07;1.92;;;;;;;22.15;100.00;101672.81;10456699;28;20517;-72
2022/07/29 14:22:35;;;;;;;4.18;1.50;;;;;;;22.48;97.95;101663.41;10458238;28;20044;-71
2022/07/29 14:27:35;;;;;;;5.80;1.50;;;;;;;22.84;93.41;101662.56;10458701;28;20033;-71
2022/07/29 14:32:36;;;;;;;4.47;1.60;;;;;;;23.01;92.12;101602.88;10456293;28;20466;-72
2022/07/29 14:37:36;;;;;;;5.38;1.65;;;;;;;23.83;89.00;101646.47;10458222;28;20037;-68
2022/07/29 14:42:37;;;;;;;6.75;1.67;;;;;;;24.17;82.49;101637.28;10458450;28;20040;-71
2022/07/29 14:47:38;;;;;;;4.30;1.60;;;;;;;24.42;82.92;101623.56;10405633;28;20033;-71
2022/07/29 14:52:39;;;;;;;5.28;1.67;;;;;;;24.77;78.59;101626.41;10428712;28;20061;-70
2022/07/29 14:57:40;;;;;;;4.95;1.38;;;;;;;24.98;78.99;101629.34;10457467;28;20037;-71
2022/07/29 15:02:40;;;;;;;6.25;1.55;;;;;;;25.01;76.25;101625.03;10455916;28;20033;-71
2022/07/29 15:07:40;;;;;;;8.23;1.42;;;;;;;25.01;74.50;101623.03;10454597;28;20053;-71
2022/07/29 15:12:41;;;;;;;4.35;1.80;;;;;;;25.09;75.63;101630.66;10452825;28;20083;-71
2022/07/29 15:17:42;;;;;;;8.70;1.30;;;;;;;25.07;76.91;101635.78;10452473;28;20037;-71
2022/07/29 15:22:43;;;;;;;5.07;1.20;;;;;;;25.13;76.61;101644.91;10456679;28;20033;-71
2022/07/29 15:27:43;;;;;;;4.05;1.40;;;;;;;24.87;74.42;101631.69;10443144;28;20460;-71
2022/07/29 15:32:44;;;;;;;3.33;1.05;;;;;;;24.60;74.70;101632.03;10445384;28;20048;-72
2022/07/29 15:37:44;;;;;;;7.13;1.63;;;;;;;24.40;72.85;101627.88;10444734;28;20042;-71
2022/07/29 15:42:45;;;;;;;8.25;1.77;;;;;;;24.46;77.58;101637.81;10435743;28;20029;-65
2022/07/29 15:47:45;;;;;;;8.35;2.08;;;;;;;24.51;77.76;101634.84;10432189;28;20044;-71
2022/07/29 15:52:46;;;;;;;5.35;1.88;;;;;;;25.13;77.14;101628.81;10430091;28;20058;-71
2022/07/29 15:57:46;;;;;;;5.13;1.85;;;;;;;25.81;76.98;101625.25;10433590;28;20392;-72
2022/07/29 16:02:46;;;;;;;5.88;2.22;;;;;;;26.45;72.00;101593.13;10434377;28;20034;-72
2022/07/29 16:07:47;;;;;;;3.90;1.50;;;;;;;27.05;70.23;101598.56;10426229;28;20501;-71
2022/07/29 16:12:47;;;;;;;4.10;1.80;;;;;;;28.23;67.76;101591.19;10453564;28;20045;-73
2022/07/29 16:17:49;;;;;;;3.95;1.70;;;;;;;29.43;63.56;101570.63;10487979;28;20029;-72
2022/07/29 16:22:49;;;;;;;6.10;1.70;;;;;;;29.88;61.98;101570.13;10443938;28;20041;-73
2022/07/29 16:27:50;;;;;;;5.90;1.60;;;;;;;29.74;61.28;101576.28;10441649;28;20045;-72
2022/07/29 16:32:50;;;;;;;5.07;1.40;;;;;;;28.53;61.68;101557.72;10442326;28;20041;-72
2022/07/29 16:37:50;;;;;;;7.32;1.55;;;;;;;27.19;61.17;101553.84;10460177;28;20041;-69
2022/07/29 16:42:51;;;;;;;4.55;1.42;;;;;;;26.31;64.40;101592.59;10439704;28;20171;-72
2022/07/29 16:47:53;;;;;;;5.05;1.60;;;;;;;25.23;65.83;101602.31;10438956;28;20048;-71
2022/07/29 16:52:54;;;;;;;3.15;1.55;;;;;;;24.67;69.86;101607.88;10457461;28;20049;-71
2022/07/29 16:57:54;;;;;;;4.60;1.70;;;;;;;24.45;69.94;101608.00;10449232;28;20044;-71
2022/07/29 17:02:55;;;;;;;7.70;1.92;;;;;;;24.25;70.60;101609.50;10455033;28;20483;-71
2022/07/29 17:07:57;;;;;;;6.68;1.73;;;;;;;24.01;71.88;101577.03;10460108;28;20037;-72
2022/07/29 17:12:57;;;;;;;2.65;1.40;;;;;;;23.97;76.12;101621.03;10458563;28;20051;-72
2022/07/29 17:17:59;;;;;;;3.58;1.42;;;;;;;23.73;75.74;101610.19;10460499;28;20040;-70
2022/07/29 17:22:59;;;;;;;3.22;1.45;;;;;;;23.46;77.76;101616.84;10459009;28;20036;-71
2022/07/29 17:28:00;;;;;;;4.95;1.60;;;;;;;23.19;78.75;101623.50;10457632;28;20049;-72
2022/07/29 17:33:00;;;;;;;4.82;2.15;;;;;;;22.96;81.79;101637.53;10459414;28;20044;-71
2022/07/29 17:38:01;;;;;;;5.95;2.10;;;;;;;22.66;82.41;101611.91;10459927;28;20122;-71
2022/07/29 17:43:03;;;;;;;3.35;1.45;;;;;;;22.63;83.43;101645.38;10459022;28;20036;-71
2022/07/29 17:48:04;;;;;;;4.05;1.90;;;;;;;22.46;86.36;101651.69;10459314;28;20049;-71
2022/07/29 17:53:04;;;;;;;5.00;1.30;;;;;;;22.33;86.72;101654.22;10458281;28;20037;-71
2022/07/29 17:58:07;;;;;;;5.80;2.05;;;;;;;22.15;86.77;101641.94;10448060;28;20041;-71
2022/07/29 18:03:08;;;;;;;4.55;1.90;;;;;;;22.03;89.63;101654.84;10452398;28;20036;-71
2022/07/29 18:08:08;;;;;;;6.95;2.10;;;;;;;21.84;91.21;101655.81;10455551;28;20048;-73
2022/07/29 18:13:11;;;;;;;4.90;1.63;;;;;;;21.67;93.55;101664.00;10439876;28;20075;-72
2022/07/29 18:18:12;;;;;;;5.95;2.00;;;;;;;21.46;95.72;101658.81;10438455;28;20490;-71
2022/07/29 18:23:13;;;;;;;4.82;1.90;;;;;;;21.30;97.59;101672.22;10421628;28;20041;-71
2022/07/29 18:28:13;;;;;;;5.88;2.08;;;;;;;21.17;100.00;101671.06;10449616;28;20033;-72
2022/07/29 18:33:16;;;;;;;7.60;2.17;;;;;;;21.00;100.00;101662.41;10453040;28;20032;-71
2022/07/29 18:38:16;;;;;;;6.30;2.25;;;;;;;20.78;100.00;101662.22;10447672;28;20063;-71
2022/07/29 18:43:16;;;;;;;7.93;2.22;;;;;;;20.63;100.00;101664.13;10453813;28;20037;-72
2022/07/29 18:48:17;;;;;;;8.20;2.00;;;;;;;20.50;100.00;101664.81;10453929;28;20041;-71
2022/07/29 18:53:17;;;;;;;4.30;1.98;;;;;;;20.35;100.00;101668.69;10455451;28;20041;-71
2022/07/29 18:58:18;;;;;;;4.15;2.25;;;;;;;20.19;100.00;101682.03;10455397;28;20044;-71
2022/07/29 19:03:18;;;;;;;3.70;2.20;;;;;;;20.04;100.00;101676.66;10456217;28;20590;-72
2022/07/29 19:08:19;;;;;;;7.03;2.80;;;;;;;19.92;100.00;101683.47;10456097;28;20037;-72
2022/07/29 19:13:19;;;;;;;9.23;2.35;;;;;;;19.70;100.00;101685.94;10455568;28;20033;-71
2022/07/29 19:18:20;;;;;;;6.20;2.17;;;;;;;19.45;100.00;101698.22;10454507;28;20033;-70
2022/07/29 19:23:20;;;;;;;8.90;2.50;;;;;;;19.18;100.00;101690.38;10455512;28;20048;-71
2022/07/29 19:28:21;;;;;;;6.93;2.75;;;;;;;18.87;100.00;101697.06;10451373;28;20075;-71
2022/07/29 19:33:21;;;;;;;4.57;2.50;;;;;;;18.64;100.00;101703.31;10452065;28;20036;-71
2022/07/29 19:38:22;;;;;;;6.43;2.85;;;;;;;18.43;100.00;101710.97;10454230;28;20589;-71
2022/07/29 19:43:22;;;;;;;6.80;2.80;;;;;;;18.23;100.00;101726.69;10455676;28;20083;-71
2022/07/29 19:48:23;;;;;;;4.10;2.17;;;;;;;18.01;100.00;101717.84;10455932;28;20037;-71
2022/07/29 19:53:23;;;;;;;7.70;3.20;;;;;;;17.91;100.00;101738.22;10456934;28;20439;-72
2022/07/29 19:58:24;;;;;;;12.70;2.85;;;;;;;17.76;100.00;101733.50;10451264;28;20040;-72
2022/07/29 20:03:24;;;;;;;10.95;3.95;;;;;;;17.55;100.00;101727.97;10455413;28;20036;-71
2022/07/29 20:08:25;;;;;;;10.85;3.15;;;;;;;17.40;100.00;101727.97;10461435;28;20496;-71
2022/07/29 20:13:25;;;;;;;8.15;3.67;;;;;;;17.29;100.00;101729.09;10460411;28;20055;-71
2022/07/29 20:18:26;;;;;;;7.43;3.20;;;;;;;17.16;100.00;101730.50;10462768;28;20047;-72
2022/07/29 20:23:26;;;;;;;7.22;2.70;;;;;;;16.94;100.00;101719.63;10457768;28;20029;-71
2022/07/29 20:28:27;;;;;;;5.80;3.30;;;;;;;16.92;100.00;101727.41;10452791;28;20029;-72
2022/07/29 20:33:27;;;;;;;11.65;3.50;;;;;;;16.84;100.00;101734.34;10461861;28;20039;-65
2022/07/29 20:38:29;;;;;;;10.07;3.50;;;;;;;16.76;100.00;101726.50;10459773;28;20044;-72
2022/07/29 20:43:30;;;;;;;6.72;3.20;;;;;;;16.66;100.00;101730.13;10418672;28;20037;-72
2022/07/29 20:48:30;;;;;;;5.88;3.05;;;;;;;16.54;100.00;101735.09;10460776;28;20059;-72
2022/07/29 20:53:32;;;;;;;9.60;3.40;;;;;;;16.50;100.00;101733.97;10461781;28;20396;-72
2022/07/29 20:58:33;;;;;;;6.43;3.60;;;;;;;16.41;100.00;101730.84;10458464;28;20021;-71
2022/07/29 21:03:34;;;;;;;9.35;3.78;;;;;;;16.32;100.00;101732.50;10425121;28;20040;-71
2022/07/29 21:08:34;;;;;;;6.45;3.75;;;;;;;16.30;100.00;101743.88;10458723;28;20048;-72
2022/07/29 21:13:37;;;;;;;9.05;3.63;;;;;;;16.23;100.00;101745.25;10460690;28;20060;-71
2022/07/29 21:18:44;;;;;;;10.20;3.72;;;;;;;16.16;100.00;101751.03;10460263;28;20037;-71
2022/07/29 21:23:45;;;;;;;14.70;4.18;;;;;;;16.06;100.00;101743.53;10443059;28;20044;-71
2022/07/29 21:28:46;;;;;;;6.97;3.90;;;;;;;15.94;100.00;101738.19;10454604;28;20039;-72
2022/07/29 21:33:46;;;;;;;5.68;4.55;;;;;;;15.84;100.00;101742.84;10456723;28;20045;-71
2022/07/29 21:38:47;;;;;;;9.93;4.25;;;;;;;15.78;100.00;101744.75;10456617;28;20083;-72
2022/07/29 21:43:47;;;;;;;9.02;5.03;;;;;;;15.68;100.00;101753.81;10456401;28;20391;-71
2022/07/29 21:48:48;;;;;;;8.13;5.15;;;;;;;15.50;100.00;101737.56;10457526;28;20053;-71
2022/07/29 21:53:49;;;;;;;9.48;5.22;;;;;;;15.50;100.00;101755.09;10457335;28;20635;-72
2022/07/29 21:58:49;;;;;;;11.65;5.30;;;;;;;15.43;100.00;101753.63;10457147;28;20408;-71
2022/07/29 22:03:50;;;;;;;8.50;5.35;;;;;;;15.34;100.00;101745.78;10439728;28;20048;-69
2022/07/29 22:08:51;;;;;;;7.28;5.90;;;;;;;15.27;100.00;101739.63;10458079;28;21001;-72
2022/07/29 22:13:52;;;;;;;9.75;5.25;;;;;;;15.19;100.00;101739.28;10455500;28;20043;-71
2022/07/29 22:18:53;;;;;;;8.85;5.05;;;;;;;15.14;100.00;101745.63;10455790;28;20037;-71
2022/07/29 22:23:53;;;;;;;10.38;6.22;;;;;;;15.08;100.00;101753.03;10425923;28;20064;-72
2022/07/29 22:28:54;;;;;;;7.70;6.03;;;;;;;15.02;100.00;101744.94;10457331;28;20045;-72
2022/07/29 22:33:54;;;;;;;8.75;6.03;;;;;;;14.95;100.00;101747.94;10453563;28;20048;-72
2022/07/29 22:38:55;;;;;;;9.77;6.35;;;;;;;14.88;100.00;101741.75;10454402;28;20049;-72
2022/07/29 22:43:55;;;;;;;10.48;6.75;;;;;;;14.81;100.00;101749.47;10455165;28;20044;-72
2022/07/29 22:48:57;;;;;;;10.20;6.68;;;;;;;14.77;100.00;101751.09;10455122;28;20489;-65
2022/07/29 22:53:57;;;;;;;11.20;6.88;;;;;;;14.67;100.00;101732.41;10457038;28;20037;-72
2022/07/29 22:58:58;;;;;;;10.75;6.80;;;;;;;14.67;100.00;101744.31;10455770;28;20033;-72